createdAt,value
2017-01-06T00:00:47.519Z,0
2017-01-06T00:01:47.718Z,0
2017-01-06T00:02:47.513Z,0
2017-01-06T00:03:47.781Z,0
2017-01-06T00:04:48.666Z,0
2017-01-06T00:05:47.707Z,0
2017-01-06T00:06:47.649Z,0
2017-01-06T00:07:47.718Z,0
2017-01-06T00:08:47.589Z,0
2017-01-06T00:09:47.904Z,0
2017-01-06T00:10:47.578Z,0
2017-01-06T00:11:47.748Z,0
2017-01-06T00:12:47.741Z,0
2017-01-06T00:13:47.585Z,0
2017-01-06T00:14:47.498Z,0
2017-01-06T00:15:47.704Z,0
2017-01-06T00:16:47.721Z,0
2017-01-06T00:17:47.655Z,0
2017-01-06T00:18:47.633Z,0
2017-01-06T00:19:47.647Z,0
2017-01-06T00:20:47.554Z,0
2017-01-06T00:21:47.789Z,0
2017-01-06T00:22:47.626Z,0
2017-01-06T00:23:47.667Z,0
2017-01-06T00:24:47.806Z,0
2017-01-06T00:25:47.496Z,0
2017-01-06T00:26:47.587Z,0
2017-01-06T00:27:48.402Z,0
2017-01-06T00:28:47.511Z,0
2017-01-06T00:29:47.491Z,0
2017-01-06T00:30:48.653Z,0
2017-01-06T00:31:47.700Z,0
2017-01-06T00:32:47.525Z,0
2017-01-06T00:33:47.767Z,0
2017-01-06T00:34:47.606Z,0
2017-01-06T00:35:47.736Z,0
2017-01-06T00:36:47.609Z,0
2017-01-06T00:37:47.695Z,0
2017-01-06T00:38:47.717Z,0
2017-01-06T00:39:47.757Z,0
2017-01-06T00:40:47.588Z,0
2017-01-06T00:41:47.663Z,0
2017-01-06T00:42:47.555Z,0
2017-01-06T00:43:47.594Z,0
2017-01-06T00:44:47.621Z,0
2017-01-06T00:45:47.676Z,0
2017-01-06T00:46:47.636Z,0
2017-01-06T00:47:47.805Z,0
2017-01-06T00:48:47.610Z,0
2017-01-06T00:49:47.754Z,0
2017-01-06T00:50:47.593Z,0
2017-01-06T00:51:47.615Z,0
2017-01-06T00:52:47.680Z,0
2017-01-06T00:53:47.563Z,0
2017-01-06T00:54:47.584Z,0
2017-01-06T00:55:47.747Z,0
2017-01-06T00:56:47.597Z,0
2017-01-06T00:57:47.643Z,0
2017-01-06T00:58:47.629Z,0
2017-01-06T00:59:48.320Z,0
2017-01-06T01:00:47.575Z,0
2017-01-06T01:01:47.703Z,0
2017-01-06T01:02:47.616Z,0
2017-01-06T01:03:47.705Z,0
2017-01-06T01:04:47.595Z,0
2017-01-06T01:05:47.713Z,0
2017-01-06T01:06:48.265Z,0
2017-01-06T01:07:47.732Z,0
2017-01-06T01:08:47.615Z,0
2017-01-06T01:09:47.722Z,0
2017-01-06T01:10:47.692Z,0
2017-01-06T01:11:47.626Z,0
2017-01-06T01:12:48.184Z,0
2017-01-06T01:13:47.701Z,0
2017-01-06T01:14:47.542Z,0
2017-01-06T01:15:47.603Z,0
2017-01-06T01:16:47.673Z,0
2017-01-06T01:17:47.682Z,0
2017-01-06T01:18:47.568Z,0
2017-01-06T01:19:47.825Z,0
2017-01-06T01:20:49.332Z,0
2017-01-06T01:21:47.673Z,0
2017-01-06T01:22:47.564Z,0
2017-01-06T01:23:47.646Z,0
2017-01-06T01:24:47.581Z,0
2017-01-06T01:25:47.751Z,0
2017-01-06T01:26:47.641Z,0
2017-01-06T01:27:49.664Z,0
2017-01-06T01:28:47.713Z,0
2017-01-06T01:29:47.757Z,0
2017-01-06T01:30:47.640Z,0
2017-01-06T01:31:47.815Z,0
2017-01-06T01:32:47.551Z,0
2017-01-06T01:33:47.724Z,0
2017-01-06T01:34:47.622Z,0
2017-01-06T01:35:47.633Z,0
2017-01-06T01:36:47.606Z,0
2017-01-06T01:37:47.557Z,0
2017-01-06T01:38:47.600Z,0
2017-01-06T01:39:47.660Z,0
2017-01-06T01:40:47.561Z,0
2017-01-06T01:41:47.706Z,0
2017-01-06T01:42:47.649Z,0
2017-01-06T01:43:47.637Z,0
2017-01-06T01:44:47.550Z,0
2017-01-06T01:45:47.671Z,0
2017-01-06T01:46:47.582Z,0
2017-01-06T01:47:47.602Z,0
2017-01-06T01:48:47.650Z,0
2017-01-06T01:49:47.858Z,0
2017-01-06T01:50:47.557Z,0
2017-01-06T01:51:47.660Z,0
2017-01-06T01:52:47.552Z,0
2017-01-06T01:53:47.698Z,0
2017-01-06T01:54:47.638Z,0
2017-01-06T01:55:47.619Z,0
2017-01-06T01:56:47.600Z,0
2017-01-06T01:57:47.567Z,0
2017-01-06T01:58:47.580Z,0
2017-01-06T01:59:47.709Z,0
2017-01-06T02:00:47.576Z,0
2017-01-06T02:01:47.635Z,0
2017-01-06T02:02:48.600Z,0
2017-01-06T02:03:47.666Z,0
2017-01-06T02:04:47.560Z,0
2017-01-06T02:05:48.368Z,0
2017-01-06T02:06:47.665Z,0
2017-01-06T02:07:47.739Z,0
2017-01-06T02:08:47.598Z,0
2017-01-06T02:09:47.607Z,0
2017-01-06T02:10:47.589Z,0
2017-01-06T02:11:47.851Z,0
2017-01-06T02:12:47.655Z,0
2017-01-06T02:13:47.660Z,0
2017-01-06T02:14:47.607Z,0
2017-01-06T02:15:47.766Z,0
2017-01-06T02:16:47.686Z,0
2017-01-06T02:17:47.588Z,0
2017-01-06T02:18:47.718Z,0
2017-01-06T02:19:47.877Z,0
2017-01-06T02:20:47.657Z,0
2017-01-06T02:21:47.706Z,0
2017-01-06T02:22:47.585Z,0
2017-01-06T02:23:47.644Z,0
2017-01-06T02:24:47.634Z,0
2017-01-06T02:25:47.837Z,0
2017-01-06T02:26:47.642Z,0
2017-01-06T02:27:47.595Z,0
2017-01-06T02:28:47.583Z,0
2017-01-06T02:29:47.656Z,0
2017-01-06T02:30:47.623Z,0
2017-01-06T02:31:47.656Z,0
2017-01-06T02:32:48.326Z,0
2017-01-06T02:33:47.653Z,0
2017-01-06T02:34:47.607Z,0
2017-01-06T02:35:47.815Z,0
2017-01-06T02:36:47.755Z,0
2017-01-06T02:37:47.808Z,0
2017-01-06T02:38:47.575Z,0
2017-01-06T02:39:47.955Z,0
2017-01-06T02:40:47.726Z,0
2017-01-06T02:41:47.793Z,0
2017-01-06T02:42:47.688Z,0
2017-01-06T02:43:47.811Z,0
2017-01-06T02:44:47.696Z,0
2017-01-06T02:45:47.601Z,0
2017-01-06T02:46:47.814Z,0
2017-01-06T02:47:47.823Z,0
2017-01-06T02:48:47.666Z,0
2017-01-06T02:49:47.690Z,0
2017-01-06T02:50:47.651Z,0
2017-01-06T02:51:48.225Z,0
2017-01-06T02:52:47.623Z,0
2017-01-06T02:53:47.683Z,0
2017-01-06T02:54:47.657Z,0
2017-01-06T02:55:47.683Z,0
2017-01-06T02:56:47.685Z,0
2017-01-06T02:57:47.738Z,0
2017-01-06T02:58:47.683Z,0
2017-01-06T02:59:47.835Z,0
2017-01-06T03:00:47.677Z,0
2017-01-06T03:01:47.723Z,0
2017-01-06T03:02:47.673Z,0
2017-01-06T03:03:47.645Z,0
2017-01-06T03:04:47.651Z,0
2017-01-06T03:05:47.818Z,0
2017-01-06T03:06:47.652Z,0
2017-01-06T03:07:47.720Z,0
2017-01-06T03:08:47.669Z,0
2017-01-06T03:09:47.674Z,0
2017-01-06T03:10:47.662Z,0
2017-01-06T03:11:48.347Z,0
2017-01-06T03:12:47.600Z,0
2017-01-06T03:13:47.652Z,0
2017-01-06T03:14:47.720Z,0
2017-01-06T03:15:47.812Z,0
2017-01-06T03:16:47.718Z,0
2017-01-06T03:17:47.676Z,0
2017-01-06T03:18:48.189Z,0
2017-01-06T03:19:47.758Z,0
2017-01-06T03:20:47.739Z,0
2017-01-06T03:21:47.709Z,0
2017-01-06T03:22:47.713Z,0
2017-01-06T03:23:47.809Z,0
2017-01-06T03:24:47.711Z,0
2017-01-06T03:25:47.780Z,0
2017-01-06T03:26:47.729Z,0
2017-01-06T03:27:47.690Z,0
2017-01-06T03:28:47.691Z,0
2017-01-06T03:29:47.814Z,0
2017-01-06T03:30:47.680Z,0
2017-01-06T03:31:47.737Z,0
2017-01-06T03:32:49.342Z,0
2017-01-06T03:33:47.709Z,0
2017-01-06T03:34:47.771Z,0
2017-01-06T03:35:47.679Z,0
2017-01-06T03:36:47.775Z,0
2017-01-06T03:37:47.792Z,0
2017-01-06T03:38:47.639Z,0
2017-01-06T03:39:49.690Z,0
2017-01-06T03:40:47.729Z,0
2017-01-06T03:41:47.717Z,0
2017-01-06T03:42:47.792Z,0
2017-01-06T03:43:48.499Z,0
2017-01-06T03:44:47.703Z,0
2017-01-06T03:45:47.781Z,0
2017-01-06T03:46:47.769Z,0
2017-01-06T03:47:47.947Z,0
2017-01-06T03:48:47.688Z,0
2017-01-06T03:49:47.831Z,0
2017-01-06T03:50:47.820Z,0
2017-01-06T03:51:47.710Z,0
2017-01-06T03:52:47.817Z,0
2017-01-06T03:53:47.839Z,0
2017-01-06T03:54:47.733Z,0
2017-01-06T03:55:47.798Z,0
2017-01-06T03:56:47.846Z,0
2017-01-06T03:57:47.768Z,0
2017-01-06T03:58:47.825Z,0
2017-01-06T03:59:47.827Z,0
2017-01-06T04:00:47.679Z,0
2017-01-06T04:01:47.855Z,0
2017-01-06T04:02:47.698Z,0
2017-01-06T04:03:47.809Z,0
2017-01-06T04:04:47.709Z,0
2017-01-06T04:05:47.858Z,0
2017-01-06T04:06:47.787Z,0
2017-01-06T04:07:47.918Z,0
2017-01-06T04:08:47.675Z,0
2017-01-06T04:09:47.692Z,0
2017-01-06T04:10:47.724Z,0
2017-01-06T04:11:47.717Z,0
2017-01-06T04:12:47.698Z,0
2017-01-06T04:13:47.899Z,0
2017-01-06T04:14:47.759Z,0
2017-01-06T04:15:47.738Z,0
2017-01-06T04:16:47.798Z,0
2017-01-06T04:17:47.760Z,0
2017-01-06T04:18:47.717Z,0
2017-01-06T04:19:47.648Z,0
2017-01-06T04:25:06.363Z,0
2017-01-06T04:25:18.362Z,0
2017-01-06T04:26:18.155Z,0
2017-01-06T04:27:18.194Z,0
2017-01-06T04:28:18.197Z,0
2017-01-06T04:29:18.098Z,0
2017-01-06T04:30:18.295Z,0
2017-01-06T04:31:18.337Z,0
2017-01-06T04:32:18.193Z,0
2017-01-06T04:33:18.147Z,0
2017-01-06T04:34:18.214Z,0
2017-01-06T04:35:18.184Z,0
2017-01-06T04:36:18.217Z,0
2017-01-06T04:37:18.958Z,0
2017-01-06T04:38:18.283Z,0
2017-01-06T04:39:18.138Z,0
2017-01-06T04:40:18.951Z,0
2017-01-06T04:41:18.243Z,0
2017-01-06T04:42:18.268Z,0
2017-01-06T04:43:18.106Z,0
2017-01-06T04:44:18.229Z,0
2017-01-06T04:45:18.186Z,0
2017-01-06T04:46:18.351Z,0
2017-01-06T04:47:18.175Z,0
2017-01-06T04:48:18.241Z,0
2017-01-06T04:49:18.234Z,0
2017-01-06T04:50:18.198Z,0
2017-01-06T04:51:18.147Z,0
2017-01-06T04:52:18.926Z,0
2017-01-06T04:53:18.236Z,0
2017-01-06T04:54:18.129Z,0
2017-01-06T04:55:18.188Z,0
2017-01-06T04:56:18.142Z,0
2017-01-06T04:57:18.303Z,0
2017-01-06T04:58:18.189Z,0
2017-01-06T04:59:18.112Z,0
2017-01-06T05:00:18.231Z,0
2017-01-06T05:01:18.269Z,0
2017-01-06T05:02:18.185Z,0
2017-01-06T05:03:18.305Z,0
2017-01-06T05:04:18.244Z,0
2017-01-06T05:05:18.171Z,0
2017-01-06T05:06:18.194Z,0
2017-01-06T05:07:18.174Z,0
2017-01-06T05:08:18.177Z,0
2017-01-06T05:09:18.364Z,0
2017-01-06T05:10:18.229Z,0
2017-01-06T05:11:18.938Z,0
2017-01-06T05:12:18.268Z,0
2017-01-06T05:13:18.181Z,0
2017-01-06T05:14:18.435Z,0
2017-01-06T05:15:18.225Z,0
2017-01-06T05:16:18.333Z,0
2017-01-06T05:17:18.334Z,0
2017-01-06T05:18:18.234Z,0
2017-01-06T05:19:19.396Z,0
2017-01-06T05:20:18.306Z,0
2017-01-06T05:21:18.169Z,0
2017-01-06T05:22:18.293Z,0
2017-01-06T05:23:18.201Z,0
2017-01-06T05:24:18.263Z,0
2017-01-06T05:25:18.228Z,0
2017-01-06T05:26:18.278Z,0
2017-01-06T05:27:18.266Z,0
2017-01-06T05:28:18.181Z,0
2017-01-06T05:29:18.269Z,0
2017-01-06T05:30:18.242Z,0
2017-01-06T05:31:18.197Z,0
2017-01-06T05:32:18.200Z,0
2017-01-06T05:33:18.172Z,0
2017-01-06T05:34:18.129Z,0
2017-01-06T05:35:18.208Z,0
2017-01-06T05:36:18.243Z,0
2017-01-06T05:37:18.234Z,0
2017-01-06T05:38:18.223Z,0
2017-01-06T05:39:18.237Z,0
2017-01-06T05:40:18.302Z,0
2017-01-06T05:41:18.324Z,0
2017-01-06T05:42:18.266Z,0
2017-01-06T05:43:18.274Z,0
2017-01-06T05:44:18.333Z,0
2017-01-06T05:45:18.393Z,0
2017-01-06T05:46:18.303Z,0
2017-01-06T05:47:18.432Z,0
2017-01-06T05:48:18.242Z,0
2017-01-06T05:49:18.253Z,0
2017-01-06T05:50:18.287Z,0
2017-01-06T05:51:18.286Z,0
2017-01-06T05:52:18.345Z,0
2017-01-06T05:53:20.822Z,0
2017-01-06T05:54:18.248Z,0
2017-01-06T05:55:18.234Z,0
2017-01-06T05:56:18.250Z,0
2017-01-06T05:57:18.243Z,0
2017-01-06T05:58:18.262Z,0
2017-01-06T05:59:18.215Z,0
2017-01-06T06:00:18.313Z,0
2017-01-06T06:01:18.263Z,0
2017-01-06T06:02:18.250Z,0
2017-01-06T06:03:18.212Z,0
2017-01-06T06:04:18.261Z,0
2017-01-06T06:05:18.313Z,0
2017-01-06T06:06:18.277Z,0
2017-01-06T06:07:18.201Z,0
2017-01-06T06:08:18.292Z,0
2017-01-06T06:09:18.203Z,0
2017-01-06T06:10:18.266Z,0
2017-01-06T06:11:18.261Z,0
2017-01-06T06:12:18.301Z,0
2017-01-06T06:13:18.274Z,0
2017-01-06T06:14:18.342Z,0
2017-01-06T06:15:18.463Z,0
2017-01-06T06:16:18.351Z,0
2017-01-06T06:17:18.271Z,0
2017-01-06T06:18:18.281Z,0
2017-01-06T06:19:18.472Z,0
2017-01-06T06:20:18.465Z,0
2017-01-06T06:21:18.537Z,0
2017-01-06T06:22:18.390Z,0
2017-01-06T06:23:18.321Z,0
2017-01-06T06:24:18.313Z,0
2017-01-06T06:25:18.300Z,0
2017-01-06T06:26:18.331Z,0
2017-01-06T06:27:18.299Z,0
2017-01-06T06:28:18.258Z,0
2017-01-06T06:29:18.229Z,0
2017-01-06T06:30:18.281Z,0
2017-01-06T06:31:18.249Z,0
2017-01-06T06:32:18.290Z,0
2017-01-06T06:33:18.258Z,0
2017-01-06T06:34:18.389Z,0
2017-01-06T06:35:18.280Z,0
2017-01-06T06:36:18.350Z,0
2017-01-06T06:37:18.529Z,0
2017-01-06T06:38:18.401Z,0
2017-01-06T06:39:18.541Z,0
2017-01-06T06:40:18.397Z,0
2017-01-06T06:41:19.129Z,0
2017-01-06T06:42:18.343Z,0
2017-01-06T06:43:18.387Z,0
2017-01-06T06:44:18.312Z,0
2017-01-06T06:45:18.489Z,0
2017-01-06T06:46:18.306Z,0
2017-01-06T06:47:18.343Z,0
2017-01-06T06:48:18.465Z,0
2017-01-06T06:49:18.428Z,0
2017-01-06T06:50:18.367Z,0
2017-01-06T06:51:18.410Z,0
2017-01-06T06:52:18.320Z,0
2017-01-06T06:53:18.307Z,0
2017-01-06T06:54:18.367Z,0
2017-01-06T06:55:19.105Z,0
2017-01-06T06:56:18.432Z,0
2017-01-06T06:57:18.293Z,4
2017-01-06T06:58:18.289Z,4
2017-01-06T06:59:18.581Z,0
2017-01-06T07:00:18.354Z,4
2017-01-06T07:01:18.369Z,4
2017-01-06T07:02:18.409Z,4
2017-01-06T07:03:18.507Z,4
2017-01-06T07:04:18.431Z,4
2017-01-06T07:05:18.335Z,4
2017-01-06T07:06:18.404Z,4
2017-01-06T07:07:18.524Z,4
2017-01-06T07:08:18.366Z,8
2017-01-06T07:09:18.405Z,12
2017-01-06T07:10:18.391Z,12
2017-01-06T07:11:18.393Z,12
2017-01-06T07:12:18.434Z,16
2017-01-06T07:13:18.442Z,16
2017-01-06T07:14:18.360Z,20
2017-01-06T07:15:18.309Z,24
2017-01-06T07:16:18.373Z,28
2017-01-06T07:17:18.465Z,32
2017-01-06T07:18:18.498Z,36
2017-01-06T07:19:18.316Z,44
2017-01-06T07:20:18.441Z,48
2017-01-06T07:21:18.532Z,52
2017-01-06T07:22:18.297Z,60
2017-01-06T07:23:18.441Z,68
2017-01-06T07:24:18.344Z,80
2017-01-06T07:25:18.313Z,92
2017-01-06T07:26:18.370Z,100
2017-01-06T07:27:18.340Z,112
2017-01-06T07:28:18.311Z,120
2017-01-06T07:29:18.280Z,136
2017-01-06T07:30:18.326Z,148
2017-01-06T07:31:18.416Z,164
2017-01-06T07:32:18.360Z,176
2017-01-06T07:33:18.384Z,196
2017-01-06T07:34:18.511Z,212
2017-01-06T07:35:18.429Z,228
2017-01-06T07:36:18.426Z,244
2017-01-06T07:37:18.478Z,264
2017-01-06T07:38:18.461Z,284
2017-01-06T07:39:18.964Z,304
2017-01-06T07:40:18.551Z,320
2017-01-06T07:41:18.451Z,344
2017-01-06T07:42:18.390Z,364
2017-01-06T07:43:18.333Z,388
2017-01-06T07:44:19.023Z,412
2017-01-06T07:45:18.392Z,440
2017-01-06T07:46:18.361Z,464
2017-01-06T07:47:18.376Z,488
2017-01-06T07:48:18.471Z,512
2017-01-06T07:49:18.479Z,544
2017-01-06T07:50:18.400Z,576
2017-01-06T07:51:18.502Z,612
2017-01-06T07:52:18.401Z,644
2017-01-06T07:53:18.440Z,676
2017-01-06T07:54:18.379Z,708
2017-01-06T07:55:18.462Z,744
2017-01-06T07:56:18.414Z,784
2017-01-06T07:57:18.305Z,824
2017-01-06T07:58:18.442Z,876
2017-01-06T07:59:18.477Z,956
2017-01-06T08:00:18.428Z,1060
2017-01-06T08:01:18.508Z,1176
2017-01-06T08:02:18.415Z,1284
2017-01-06T08:03:18.398Z,1400
2017-01-06T08:04:18.445Z,1516
2017-01-06T08:05:18.479Z,1604
2017-01-06T08:06:18.342Z,1652
2017-01-06T08:07:18.349Z,1660
2017-01-06T08:08:18.480Z,1640
2017-01-06T08:09:18.669Z,1592
2017-01-06T08:10:18.399Z,1552
2017-01-06T08:11:18.424Z,1532
2017-01-06T08:12:18.379Z,1532
2017-01-06T08:13:19.062Z,1520
2017-01-06T08:14:18.419Z,1504
2017-01-06T08:15:18.377Z,1488
2017-01-06T08:16:18.932Z,1448
2017-01-06T08:17:18.393Z,1412
2017-01-06T08:18:18.476Z,1412
2017-01-06T08:19:18.389Z,1476
2017-01-06T08:20:18.555Z,1604
2017-01-06T08:21:18.478Z,1844
2017-01-06T08:22:18.459Z,2084
2017-01-06T08:23:18.576Z,2268
2017-01-06T08:24:18.572Z,2388
2017-01-06T08:25:19.423Z,2420
2017-01-06T08:26:18.555Z,2528
2017-01-06T08:27:18.449Z,2556
2017-01-06T08:28:18.390Z,2584
2017-01-06T08:29:18.562Z,2596
2017-01-06T08:30:18.600Z,2720
2017-01-06T08:31:18.443Z,2732
2017-01-06T08:32:18.397Z,2560
2017-01-06T08:33:18.396Z,2648
2017-01-06T08:34:18.519Z,2824
2017-01-06T08:35:18.574Z,2808
2017-01-06T08:36:18.449Z,2916
2017-01-06T08:37:28.471Z,3028
2017-01-06T08:38:18.591Z,3064
2017-01-06T08:39:18.428Z,3012
2017-01-06T08:40:18.569Z,3060
2017-01-06T08:41:18.646Z,3108
2017-01-06T08:42:18.577Z,3184
2017-01-06T08:43:18.398Z,3304
2017-01-06T08:44:18.523Z,3456
2017-01-06T08:45:18.758Z,3560
2017-01-06T08:46:18.548Z,3636
2017-01-06T08:47:18.451Z,3736
2017-01-06T08:48:18.521Z,3808
2017-01-06T08:49:18.507Z,3628
2017-01-06T08:50:18.498Z,3400
2017-01-06T08:51:18.593Z,3428
2017-01-06T08:52:18.435Z,3364
2017-01-06T08:53:18.509Z,3364
2017-01-06T08:54:18.572Z,3500
2017-01-06T08:55:18.632Z,3888
2017-01-06T08:56:18.753Z,4100
2017-01-06T08:57:18.792Z,4144
2017-01-06T08:58:18.560Z,4024
2017-01-06T08:59:18.678Z,3848
2017-01-06T09:00:18.616Z,3504
2017-01-06T09:01:18.552Z,3796
2017-01-06T09:02:18.556Z,4216
2017-01-06T09:03:18.573Z,4296
2017-01-06T09:04:18.504Z,4412
2017-01-06T09:05:18.588Z,4452
2017-01-06T09:06:18.546Z,4348
2017-01-06T09:07:18.437Z,4240
2017-01-06T09:08:18.460Z,3492
2017-01-06T09:09:18.501Z,3856
2017-01-06T09:10:18.536Z,3528
2017-01-06T09:11:18.678Z,3124
2017-01-06T09:12:18.568Z,2948
2017-01-06T09:13:18.487Z,2992
2017-01-06T09:14:19.596Z,3480
2017-01-06T09:15:18.721Z,3988
2017-01-06T09:16:18.541Z,4260
2017-01-06T09:17:18.524Z,4648
2017-01-06T09:18:18.576Z,4836
2017-01-06T09:19:18.476Z,5340
2017-01-06T09:20:18.517Z,5884
2017-01-06T09:21:18.727Z,6152
2017-01-06T09:22:18.581Z,6372
2017-01-06T09:23:18.497Z,6492
2017-01-06T09:24:18.540Z,6168
2017-01-06T09:25:18.526Z,6484
2017-01-06T09:26:18.597Z,6660
2017-01-06T09:27:19.283Z,6796
2017-01-06T09:28:18.505Z,7016
2017-01-06T09:29:18.648Z,7500
2017-01-06T09:30:18.542Z,7472
2017-01-06T09:31:18.593Z,7332
2017-01-06T09:32:18.504Z,7212
2017-01-06T09:33:18.649Z,6992
2017-01-06T09:34:18.602Z,6112
2017-01-06T09:35:18.508Z,5704
2017-01-06T09:36:18.475Z,5732
2017-01-06T09:37:19.593Z,5736
2017-01-06T09:38:18.508Z,5324
2017-01-06T09:39:18.499Z,5456
2017-01-06T09:40:18.664Z,5344
2017-01-06T09:41:18.581Z,5116
2017-01-06T09:42:18.559Z,5048
2017-01-06T09:43:19.298Z,4892
2017-01-06T09:44:18.522Z,5252
2017-01-06T09:45:18.528Z,5464
2017-01-06T09:46:18.642Z,5716
2017-01-06T09:47:18.639Z,6020
2017-01-06T09:48:18.538Z,6272
2017-01-06T09:49:18.588Z,6144
2017-01-06T09:50:19.125Z,6116
2017-01-06T09:51:18.578Z,6180
2017-01-06T09:52:18.468Z,6176
2017-01-06T09:53:19.438Z,6152
2017-01-06T09:54:18.516Z,6056
2017-01-06T09:55:19.371Z,6032
2017-01-06T09:56:19.828Z,6056
2017-01-06T09:57:19.349Z,5756
2017-01-06T09:58:18.594Z,5504
2017-01-06T09:59:18.672Z,5544
2017-01-06T10:00:18.725Z,5204
2017-01-06T10:01:18.605Z,4752
2017-01-06T10:02:18.606Z,5444
2017-01-06T10:03:18.585Z,5576
2017-01-06T10:04:18.633Z,5464
2017-01-06T10:05:18.724Z,5480
2017-01-06T10:06:18.525Z,5556
2017-01-06T10:07:18.686Z,5576
2017-01-06T10:08:18.628Z,5640
2017-01-06T10:09:20.007Z,5820
2017-01-06T10:10:18.584Z,6052
2017-01-06T10:11:20.533Z,6348
2017-01-06T10:12:18.559Z,6408
2017-01-06T10:13:18.866Z,6464
2017-01-06T10:14:19.233Z,6476
2017-01-06T10:15:18.779Z,6340
2017-01-06T10:16:18.646Z,6044
2017-01-06T10:17:18.678Z,5792
2017-01-06T10:18:18.615Z,5448
2017-01-06T10:19:18.608Z,4872
2017-01-06T10:20:18.723Z,3700
2017-01-06T10:21:18.574Z,3748
2017-01-06T10:22:18.613Z,4360
2017-01-06T10:23:18.694Z,5084
2017-01-06T10:24:18.562Z,5120
2017-01-06T10:25:18.750Z,5052
2017-01-06T10:26:18.504Z,4732
2017-01-06T10:27:28.535Z,4456
2017-01-06T10:28:18.559Z,4472
2017-01-06T10:29:18.775Z,4644
2017-01-06T10:30:18.681Z,4620
2017-01-06T10:31:18.727Z,4664
2017-01-06T10:32:18.673Z,4712
2017-01-06T10:33:18.642Z,4652
2017-01-06T10:34:19.353Z,4672
2017-01-06T10:35:19.761Z,4864
2017-01-06T10:36:19.168Z,4996
2017-01-06T10:37:18.881Z,5260
2017-01-06T10:38:18.664Z,5492
2017-01-06T10:39:18.629Z,5488
2017-01-06T10:40:18.675Z,5424
2017-01-06T10:41:19.143Z,5264
2017-01-06T10:42:18.733Z,5148
2017-01-06T10:43:19.498Z,5224
2017-01-06T10:44:18.586Z,5316
2017-01-06T10:45:18.903Z,5148
2017-01-06T10:46:18.734Z,4960
2017-01-06T10:47:18.741Z,5048
2017-01-06T10:48:18.637Z,4944
2017-01-06T10:49:19.470Z,4956
2017-01-06T10:50:18.671Z,4740
2017-01-06T10:51:18.624Z,4684
2017-01-06T10:52:18.579Z,4736
2017-01-06T10:53:18.748Z,4832
2017-01-06T10:54:18.627Z,4852
2017-01-06T10:55:18.668Z,4700
2017-01-06T10:56:18.622Z,4408
2017-01-06T10:57:18.692Z,4472
2017-01-06T10:58:18.727Z,4840
2017-01-06T10:59:18.728Z,4728
2017-01-06T11:00:18.737Z,4808
2017-01-06T11:01:18.633Z,4972
2017-01-06T11:02:18.642Z,5072
2017-01-06T11:03:18.662Z,5152
2017-01-06T11:04:18.569Z,5168
2017-01-06T11:05:18.691Z,5320
2017-01-06T11:06:18.582Z,5440
2017-01-06T11:07:18.744Z,5488
2017-01-06T11:08:18.638Z,5512
2017-01-06T11:09:18.714Z,5512
2017-01-06T11:10:18.762Z,5520
2017-01-06T11:11:18.795Z,5540
2017-01-06T11:12:18.631Z,5600
2017-01-06T11:13:19.304Z,5696
2017-01-06T11:14:19.143Z,5964
2017-01-06T11:15:18.666Z,6288
2017-01-06T11:16:18.816Z,6744
2017-01-06T11:17:18.812Z,7224
2017-01-06T11:18:18.714Z,7760
2017-01-06T11:19:18.663Z,8360
2017-01-06T11:20:18.778Z,9176
2017-01-06T11:21:18.839Z,9976
2017-01-06T11:22:21.351Z,10820
2017-01-06T11:23:18.820Z,11104
2017-01-06T11:24:18.826Z,10668
2017-01-06T11:25:18.742Z,11068
2017-01-06T11:26:18.702Z,11640
2017-01-06T11:27:18.721Z,11812
2017-01-06T11:28:18.686Z,11456
2017-01-06T11:29:18.609Z,9968
2017-01-06T11:30:18.748Z,8172
2017-01-06T11:31:18.780Z,7640
2017-01-06T11:32:21.197Z,6860
2017-01-06T11:33:18.880Z,6312
2017-01-06T11:34:18.686Z,6276
2017-01-06T11:35:18.833Z,5880
2017-01-06T11:36:18.765Z,6036
2017-01-06T11:37:18.682Z,7360
2017-01-06T11:38:18.756Z,8516
2017-01-06T11:39:18.863Z,8732
2017-01-06T11:40:18.767Z,8588
2017-01-06T11:41:19.969Z,8832
2017-01-06T11:42:18.665Z,8900
2017-01-06T11:43:18.886Z,7436
2017-01-06T11:44:18.809Z,6468
2017-01-06T11:45:19.667Z,5956
2017-01-06T11:46:18.654Z,7136
2017-01-06T11:47:18.898Z,6896
2017-01-06T11:48:18.849Z,7140
2017-01-06T11:49:18.909Z,7056
2017-01-06T11:50:18.640Z,6972
2017-01-06T11:51:18.673Z,6900
2017-01-06T11:52:18.764Z,6716
2017-01-06T11:53:18.743Z,6496
2017-01-06T11:54:18.880Z,6424
2017-01-06T11:55:18.764Z,6400
2017-01-06T11:56:19.227Z,6500
2017-01-06T11:57:19.881Z,6732
2017-01-06T11:58:18.683Z,6908
2017-01-06T11:59:19.520Z,6968
2017-01-06T12:00:18.797Z,6928
2017-01-06T12:01:18.898Z,6924
2017-01-06T12:02:18.767Z,7084
2017-01-06T12:03:19.457Z,7292
2017-01-06T12:04:18.806Z,7588
2017-01-06T12:05:18.837Z,7820
2017-01-06T12:06:18.720Z,8048
2017-01-06T12:07:18.806Z,8320
2017-01-06T12:08:18.696Z,8628
2017-01-06T12:09:18.942Z,9184
2017-01-06T12:10:18.753Z,9380
2017-01-06T12:11:18.766Z,9708
2017-01-06T12:12:18.895Z,10480
2017-01-06T12:13:18.870Z,10940
2017-01-06T12:14:18.763Z,11536
2017-01-06T12:15:18.860Z,11636
2017-01-06T12:16:18.762Z,12140
2017-01-06T12:17:18.967Z,12008
2017-01-06T12:18:18.715Z,12036
2017-01-06T12:19:18.860Z,12496
2017-01-06T12:20:18.735Z,13184
2017-01-06T12:21:18.703Z,13076
2017-01-06T12:22:18.668Z,12592
2017-01-06T12:23:18.857Z,12448
2017-01-06T12:24:18.750Z,12228
2017-01-06T12:25:18.787Z,11656
2017-01-06T12:26:18.828Z,11596
2017-01-06T12:27:19.451Z,11452
2017-01-06T12:28:18.755Z,11308
2017-01-06T12:29:18.805Z,11112
2017-01-06T12:30:18.714Z,10444
2017-01-06T12:31:19.501Z,9476
2017-01-06T12:32:18.818Z,8796
2017-01-06T12:33:18.707Z,8220
2017-01-06T12:34:18.716Z,7772
2017-01-06T12:35:18.684Z,7296
2017-01-06T12:36:18.863Z,6856
2017-01-06T12:37:19.443Z,6540
2017-01-06T12:38:18.626Z,6288
2017-01-06T12:39:18.764Z,5960
2017-01-06T12:40:18.800Z,5648
2017-01-06T12:41:18.845Z,6208
2017-01-06T12:42:19.042Z,7080
2017-01-06T12:43:18.863Z,6932
2017-01-06T12:44:18.800Z,6620
2017-01-06T12:45:18.973Z,5968
2017-01-06T12:46:18.870Z,5780
2017-01-06T12:47:18.872Z,6016
2017-01-06T12:48:18.846Z,6216
2017-01-06T12:49:18.923Z,6540
2017-01-06T12:50:18.773Z,6476
2017-01-06T12:51:19.510Z,6184
2017-01-06T12:52:18.822Z,5720
2017-01-06T12:53:18.893Z,5828
2017-01-06T12:54:18.693Z,6204
2017-01-06T12:55:18.761Z,6232
2017-01-06T12:56:18.765Z,6184
2017-01-06T12:57:18.921Z,6140
2017-01-06T12:58:18.824Z,6084
2017-01-06T12:59:18.899Z,5972
2017-01-06T13:00:19.311Z,5872
2017-01-06T13:01:18.830Z,5816
2017-01-06T13:02:18.832Z,5784
2017-01-06T13:03:18.854Z,5748
2017-01-06T13:04:18.895Z,5660
2017-01-06T13:05:18.998Z,5648
2017-01-06T13:06:18.837Z,5388
2017-01-06T13:07:18.825Z,4832
2017-01-06T13:08:18.921Z,4668
2017-01-06T13:09:18.960Z,4960
2017-01-06T13:10:19.493Z,4944
2017-01-06T13:11:19.796Z,5032
2017-01-06T13:12:18.852Z,5012
2017-01-06T13:13:18.942Z,5012
2017-01-06T13:14:18.804Z,5096
2017-01-06T13:15:18.871Z,5184
2017-01-06T13:16:18.830Z,5196
2017-01-06T13:17:18.991Z,5268
2017-01-06T13:18:18.932Z,5288
2017-01-06T13:19:18.856Z,5260
2017-01-06T13:20:18.825Z,5348
2017-01-06T13:21:18.891Z,5428
2017-01-06T13:22:19.003Z,5492
2017-01-06T13:23:19.089Z,5588
2017-01-06T13:24:18.832Z,5700
2017-01-06T13:25:19.065Z,6088
2017-01-06T13:26:18.762Z,6388
2017-01-06T13:27:18.840Z,6444
2017-01-06T13:28:19.370Z,6284
2017-01-06T13:29:18.903Z,6156
2017-01-06T13:30:18.795Z,6124
2017-01-06T13:31:19.101Z,6020
2017-01-06T13:32:18.818Z,5960
2017-01-06T13:33:18.767Z,5816
2017-01-06T13:34:19.056Z,5684
2017-01-06T13:35:18.904Z,5500
2017-01-06T13:36:18.872Z,5392
2017-01-06T13:37:18.795Z,5320
2017-01-06T13:38:18.839Z,5320
2017-01-06T13:39:18.890Z,5300
2017-01-06T13:40:18.859Z,5252
2017-01-06T13:41:18.978Z,5196
2017-01-06T13:42:19.006Z,5092
2017-01-06T13:43:18.893Z,5080
2017-01-06T13:44:18.866Z,4964
2017-01-06T13:45:18.929Z,5072
2017-01-06T13:46:18.834Z,4940
2017-01-06T13:47:18.962Z,4752
2017-01-06T13:48:18.852Z,4948
2017-01-06T13:49:19.148Z,4956
2017-01-06T13:50:18.835Z,4900
2017-01-06T13:51:18.946Z,4872
2017-01-06T13:52:18.984Z,4852
2017-01-06T13:53:19.000Z,4836
2017-01-06T13:54:18.872Z,4828
2017-01-06T13:55:18.995Z,4768
2017-01-06T13:56:18.865Z,4672
2017-01-06T13:57:19.020Z,4612
2017-01-06T13:58:18.814Z,4580
2017-01-06T13:59:18.939Z,4496
2017-01-06T14:00:18.877Z,4408
2017-01-06T14:01:19.147Z,4300
2017-01-06T14:02:19.063Z,4148
2017-01-06T14:03:19.124Z,4036
2017-01-06T14:04:18.913Z,3896
2017-01-06T14:05:20.814Z,3652
2017-01-06T14:06:18.773Z,3184